createdAt,value
2023-01-02T00:00:35.387Z,76.65
2023-01-02T00:01:36.966Z,77.32
2023-01-02T00:02:39.619Z,78.14
2023-01-02T00:03:41.359Z,78.20
2023-01-02T00:04:43.938Z,79.01
2023-01-02T00:05:49.859Z,78.21
2023-01-02T00:06:52.382Z,77.63
2023-01-02T00:07:53.924Z,79.11
2023-01-02T00:08:56.418Z,78.75
2023-01-02T00:09:57.979Z,77.96
2023-01-02T00:11:00.901Z,79.27
2023-01-02T00:12:02.494Z,78.99
2023-01-02T00:13:05.031Z,78.94
2023-01-02T00:14:06.598Z,81.26
2023-01-02T00:15:09.770Z,81.69
2023-01-02T00:16:11.318Z,81.40
2023-01-02T00:17:13.732Z,81.31
2023-01-02T00:18:15.517Z,81.37
2023-01-02T00:19:17.994Z,80.91
2023-01-02T00:20:19.528Z,80.16
2023-01-02T00:21:23.264Z,79.45
2023-01-02T00:22:24.815Z,80.36
2023-01-02T00:23:27.287Z,80.23
2023-01-02T00:24:28.787Z,80.26
2023-01-02T00:25:34.624Z,80.08
2023-01-02T00:26:36.242Z,79.92
2023-01-02T00:27:38.849Z,79.80
2023-01-02T00:28:41.479Z,79.31
2023-01-02T00:29:42.967Z,80.24
2023-01-02T00:30:45.450Z,80.31
2023-01-02T00:31:47.232Z,80.92
2023-01-02T00:32:50.015Z,80.14
2023-01-02T00:33:51.537Z,80.30
2023-01-02T00:34:53.977Z,80.44
2023-01-02T00:35:56.471Z,79.80
2023-01-02T00:36:59.378Z,81.64
2023-01-02T00:38:01.894Z,82.40
2023-01-02T00:39:03.541Z,82.25
2023-01-02T00:40:07.408Z,81.58
2023-01-02T00:41:09.244Z,80.97
2023-01-02T00:42:11.712Z,81.70
2023-01-02T00:43:13.321Z,79.90
2023-01-02T00:44:15.825Z,80.05
2023-01-02T00:45:18.517Z,78.15
2023-01-02T00:46:20.108Z,76.92
2023-01-02T00:47:22.652Z,76.36
2023-01-02T00:48:24.194Z,75.58
2023-01-02T00:49:26.749Z,75.53
2023-01-02T00:50:28.367Z,75.34
2023-01-02T00:51:30.811Z,74.48
2023-01-02T00:52:33.790Z,74.02
2023-01-02T00:53:36.347Z,74.25
2023-01-02T00:54:38.005Z,72.56
2023-01-02T00:55:40.652Z,72.19
2023-01-02T00:56:42.181Z,72.32
2023-01-02T00:57:44.720Z,71.77
2023-01-02T00:58:46.467Z,71.11
2023-01-02T00:59:48.916Z,71.26
2023-01-02T01:00:50.994Z,70.86
2023-01-02T01:01:53.779Z,71.19
2023-01-02T01:02:56.410Z,70.92
2023-01-02T01:03:59.280Z,70.26
2023-01-02T01:05:00.907Z,70.41
2023-01-02T01:06:07.733Z,69.86
2023-01-02T01:07:09.205Z,69.84
2023-01-02T01:08:12.956Z,69.79
2023-01-02T01:09:14.552Z,69.47
2023-01-02T01:10:17.272Z,69.55
2023-01-02T01:11:19.236Z,69.45
2023-01-02T01:12:21.740Z,69.46
2023-01-02T01:13:23.262Z,69.31
2023-01-02T01:14:25.748Z,68.99
2023-01-02T01:15:27.243Z,68.85
2023-01-02T01:16:29.743Z,68.53
2023-01-02T01:17:31.869Z,68.58
2023-01-02T01:18:34.389Z,68.26
2023-01-02T01:19:36.100Z,68.09
2023-01-02T01:20:39.042Z,68.27
2023-01-02T01:21:40.641Z,68.02
2023-01-02T01:22:43.131Z,68.11
2023-01-02T01:23:50.568Z,67.95
2023-01-02T01:24:53.283Z,67.94
2023-01-02T01:25:54.775Z,67.75
2023-01-02T01:26:57.221Z,68.05
2023-01-02T01:27:58.811Z,67.48
2023-01-02T01:29:01.956Z,67.25
2023-01-02T01:30:03.763Z,67.41
2023-01-02T01:31:07.708Z,66.91
2023-01-02T01:32:09.239Z,66.84
2023-01-02T01:33:11.791Z,66.46
2023-01-02T01:34:13.974Z,66.82
2023-01-02T01:35:16.538Z,66.78
2023-01-02T01:36:19.915Z,66.84
2023-01-02T01:37:22.357Z,67.15
2023-01-02T01:38:23.825Z,66.75
2023-01-02T01:39:27.790Z,66.41
2023-01-02T01:40:32.265Z,66.09
2023-01-02T01:41:34.842Z,66.26
2023-01-02T01:42:36.424Z,66.25
2023-01-02T01:43:41.451Z,66.17
2023-01-02T01:44:49.872Z,66.02
2023-01-02T01:45:51.705Z,66.28
2023-01-02T01:46:54.432Z,65.67
2023-01-02T01:48:00.437Z,65.93
2023-01-02T01:49:06.610Z,65.91
2023-01-02T01:50:10.279Z,66.05
2023-01-02T01:51:12.732Z,66.26
2023-01-02T01:52:17.341Z,66.00
2023-01-02T01:53:21.911Z,66.14
2023-01-02T01:54:28.314Z,66.07
2023-01-02T01:55:34.157Z,66.02
2023-01-02T01:56:40.026Z,65.86
2023-01-02T01:57:45.792Z,65.76
2023-01-02T01:58:47.412Z,65.55
2023-01-02T01:59:50.686Z,65.58
2023-01-02T02:00:53.378Z,65.92
2023-01-02T02:01:55.174Z,65.32
2023-01-02T02:03:00.806Z,65.45
2023-01-02T02:04:02.937Z,66.22
2023-01-02T02:05:07.850Z,65.54
2023-01-02T02:06:10.545Z,65.33
2023-01-02T02:07:13.833Z,65.13
2023-01-02T02:08:18.178Z,64.95
2023-01-02T02:09:26.835Z,64.76
2023-01-02T02:10:29.713Z,64.89
2023-01-02T02:11:33.068Z,65.11
2023-01-02T02:12:35.216Z,64.63
2023-01-02T02:13:38.850Z,64.72
2023-01-02T02:14:40.347Z,64.64
2023-01-02T02:15:49.509Z,64.58
2023-01-02T02:17:00.401Z,64.14
2023-01-02T02:18:15.310Z,64.79
2023-01-02T02:19:49.227Z,64.60
2023-01-02T02:21:01.768Z,64.27
2023-01-02T02:22:19.863Z,64.23
2023-01-02T02:23:57.022Z,64.21
2023-01-02T02:25:20.238Z,64.35
2023-01-02T02:26:49.773Z,64.13
2023-01-02T02:28:17.299Z,64.08
2023-01-02T02:29:44.298Z,63.97
2023-01-02T02:30:54.428Z,63.98
2023-01-02T02:32:01.156Z,64.27
2023-01-02T02:33:28.584Z,64.00
2023-01-02T02:34:40.724Z,64.02
2023-01-02T02:35:54.327Z,64.27
2023-01-02T02:37:01.170Z,63.95
2023-01-02T02:38:09.628Z,64.00
2023-01-02T02:39:20.588Z,64.18
2023-01-02T02:40:36.760Z,63.83
2023-01-02T02:41:47.155Z,63.98
2023-01-02T02:43:01.692Z,63.87
2023-01-02T02:44:20.359Z,63.70
2023-01-02T02:45:31.145Z,63.58
2023-01-02T02:46:38.360Z,63.70
2023-01-02T02:47:46.462Z,64.03
2023-01-02T02:48:56.284Z,63.59
2023-01-02T02:50:03.869Z,63.45
2023-01-02T02:51:09.976Z,63.48
2023-01-02T02:52:22.364Z,63.31
2023-01-02T02:53:26.566Z,63.56
2023-01-02T02:54:35.404Z,63.37
2023-01-02T02:55:43.977Z,63.25
2023-01-02T02:56:47.909Z,63.19
2023-01-02T02:57:51.521Z,63.28
2023-01-02T02:58:55.299Z,63.40
2023-01-02T02:59:56.959Z,63.10
2023-01-02T03:01:04.076Z,63.09
2023-01-02T03:02:07.212Z,63.15
2023-01-02T03:03:17.947Z,62.92
2023-01-02T03:04:21.355Z,63.13
2023-01-02T03:05:32.371Z,63.21
2023-01-02T03:06:46.645Z,63.51
2023-01-02T03:07:55.503Z,62.70
2023-01-02T03:09:09.646Z,62.80
2023-01-02T03:10:23.244Z,62.88
2023-01-02T03:11:35.037Z,62.56
2023-01-02T03:12:48.726Z,62.56
2023-01-02T03:14:00.169Z,63.10
2023-01-02T03:15:10.914Z,62.76
2023-01-02T03:16:16.422Z,62.78
2023-01-02T03:17:27.493Z,62.91
2023-01-02T03:18:35.780Z,62.72
2023-01-02T03:19:41.867Z,62.62
2023-01-02T03:20:49.224Z,62.49
2023-01-02T03:22:00.619Z,62.58
2023-01-02T03:23:08.035Z,62.69
2023-01-02T03:24:14.540Z,62.95
2023-01-02T03:25:17.958Z,62.59
2023-01-02T03:26:26.544Z,62.61
2023-01-02T03:27:33.188Z,62.60
2023-01-02T03:28:39.172Z,62.60
2023-01-02T03:29:45.013Z,62.32
2023-01-02T03:30:49.426Z,62.34
2023-01-02T03:31:55.376Z,63.09
2023-01-02T03:33:03.695Z,62.48
2023-01-02T03:34:11.982Z,62.47
2023-01-02T03:35:19.371Z,62.36
2023-01-02T03:36:26.438Z,62.35
2023-01-02T03:37:33.871Z,61.98
2023-01-02T03:38:41.560Z,61.80
2023-01-02T03:39:47.790Z,62.36
2023-01-02T03:40:56.561Z,62.68
2023-01-02T03:42:02.209Z,62.79
2023-01-02T03:43:08.790Z,62.80
2023-01-02T03:44:12.752Z,62.59
2023-01-02T03:45:20.025Z,62.72
2023-01-02T03:46:30.498Z,62.67
2023-01-02T03:47:37.765Z,62.29
2023-01-02T03:48:46.968Z,62.58
2023-01-02T03:49:52.361Z,62.56
2023-01-02T03:50:57.146Z,62.23
2023-01-02T03:51:58.965Z,62.41
2023-01-02T03:53:02.143Z,62.23
2023-01-02T03:54:05.367Z,62.49
2023-01-02T03:55:08.898Z,62.41
2023-01-02T03:56:17.982Z,62.50
2023-01-02T03:57:28.325Z,62.38
2023-01-02T03:58:39.776Z,62.48
2023-01-02T03:59:49.268Z,62.32
2023-01-02T04:00:54.684Z,62.74
2023-01-02T04:02:02.621Z,62.82
2023-01-02T04:03:09.611Z,62.63
2023-01-02T04:04:19.916Z,62.38
2023-01-02T04:05:27.949Z,62.81
2023-01-02T04:06:35.305Z,62.20
2023-01-02T04:07:44.262Z,62.41
2023-01-02T04:08:51.497Z,62.22
2023-01-02T04:09:54.447Z,62.34
2023-01-02T04:10:59.823Z,63.03
2023-01-02T04:12:07.091Z,62.98
2023-01-02T04:13:14.099Z,63.33
2023-01-02T04:14:20.165Z,63.23
2023-01-02T04:15:25.615Z,62.99
2023-01-02T04:17:53.662Z,62.56
2023-01-02T04:19:00.949Z,63.09
2023-01-02T04:20:09.586Z,63.11
2023-01-02T04:21:15.647Z,62.85
2023-01-02T04:22:22.386Z,62.65
2023-01-02T04:23:28.796Z,62.97
2023-01-02T04:24:34.724Z,62.61
2023-01-02T04:25:47.108Z,62.20
2023-01-02T04:26:53.511Z,62.49
2023-01-02T04:27:59.302Z,62.23
2023-01-02T04:29:02.385Z,62.59
2023-01-02T04:30:04.822Z,62.51
2023-01-02T04:31:11.015Z,62.24
2023-01-02T04:32:19.203Z,62.41
2023-01-02T04:33:25.213Z,62.69
2023-01-02T04:34:29.866Z,62.60
2023-01-02T04:35:35.826Z,62.53
2023-01-02T04:36:38.902Z,62.96
2023-01-02T04:37:43.408Z,62.70
2023-01-02T04:38:46.016Z,62.66
2023-01-02T04:39:48.925Z,62.45
2023-01-02T04:40:50.516Z,62.58
2023-01-02T04:41:52.959Z,62.49
2023-01-02T04:42:54.923Z,62.66
2023-01-02T04:43:58.018Z,63.26
2023-01-02T04:44:59.611Z,62.84
2023-01-02T04:46:02.195Z,63.19
2023-01-02T04:47:06.041Z,63.38
2023-01-02T04:48:08.480Z,63.00
2023-01-02T04:49:10.427Z,62.60
2023-01-02T04:50:13.338Z,62.45
2023-01-02T04:51:16.606Z,62.71
2023-01-02T04:52:19.160Z,62.96
2023-01-02T04:53:20.928Z,63.26
2023-01-02T04:54:23.407Z,62.94
2023-01-02T04:55:24.891Z,62.60
2023-01-02T04:56:27.360Z,62.43
2023-01-02T04:57:28.881Z,62.68
2023-01-02T04:58:31.564Z,62.38
2023-01-02T04:59:33.113Z,62.54
2023-01-02T05:00:35.645Z,62.90
2023-01-02T05:01:37.309Z,63.05
2023-01-02T05:02:42.046Z,63.06
2023-01-02T05:03:45.792Z,62.98
2023-01-02T05:04:48.302Z,62.67
2023-01-02T05:05:49.823Z,62.39
2023-01-02T05:06:53.784Z,62.50
2023-01-02T05:07:55.442Z,62.83
2023-01-02T05:08:59.561Z,62.50
2023-01-02T05:10:01.255Z,62.76
2023-01-02T05:11:06.573Z,63.05
2023-01-02T05:12:08.167Z,62.41
2023-01-02T05:13:10.725Z,62.62
2023-01-02T05:14:12.477Z,62.58
2023-01-02T05:15:14.936Z,62.46
2023-01-02T05:16:16.676Z,62.97
2023-01-02T05:17:19.134Z,63.16
2023-01-02T05:18:20.799Z,63.06
2023-01-02T05:19:23.316Z,62.98
2023-01-02T05:20:24.985Z,62.95
2023-01-02T05:21:44.786Z,62.42
2023-01-02T05:23:06.080Z,62.54
2023-01-02T05:24:08.738Z,62.49
2023-01-02T05:25:10.381Z,62.53
2023-01-02T05:26:13.259Z,62.24
2023-01-02T05:27:14.795Z,62.30
2023-01-02T05:28:17.411Z,62.57
2023-01-02T05:29:18.939Z,62.77
2023-01-02T05:30:22.330Z,62.39
2023-01-02T05:31:24.197Z,62.18
2023-01-02T05:32:28.271Z,62.76
2023-01-02T05:33:29.821Z,63.02
2023-01-02T05:34:32.293Z,63.22
2023-01-02T05:35:33.818Z,62.66
2023-01-02T05:36:36.245Z,63.14
2023-01-02T05:37:37.800Z,62.82
2023-01-02T05:38:41.557Z,63.16
2023-01-02T05:39:43.083Z,63.33
2023-01-02T05:40:45.595Z,63.40
2023-01-02T05:41:49.872Z,63.17
2023-01-02T05:42:52.286Z,63.02
2023-01-02T05:43:54.709Z,62.85
2023-01-02T05:44:57.252Z,62.90
2023-01-02T05:46:07.068Z,62.51
2023-01-02T05:47:12.192Z,62.92
2023-01-02T05:48:17.889Z,62.39
2023-01-02T05:49:20.450Z,62.55
2023-01-02T05:50:22.213Z,62.56
2023-01-02T05:51:24.678Z,62.50
2023-01-02T05:52:26.294Z,62.42
2023-01-02T05:53:28.920Z,62.76
2023-01-02T05:54:32.683Z,63.04
2023-01-02T05:55:34.155Z,62.75
2023-01-02T05:56:36.636Z,62.91
2023-01-02T05:57:38.151Z,63.37
2023-01-02T05:58:42.523Z,62.75
2023-01-02T05:59:44.005Z,62.92
2023-01-02T06:00:46.457Z,62.54
2023-01-02T06:01:48.064Z,62.76
2023-01-02T06:02:50.625Z,62.92
2023-01-02T06:03:54.421Z,62.87
2023-01-02T06:04:56.938Z,62.89
2023-01-02T06:06:02.787Z,63.07
2023-01-02T06:07:05.190Z,63.08
2023-01-02T06:08:06.691Z,62.84
2023-01-02T06:09:09.823Z,62.86
2023-01-02T06:10:12.782Z,63.10
2023-01-02T06:11:15.746Z,63.21
2023-01-02T06:12:18.228Z,63.42
2023-01-02T06:13:19.699Z,63.35
2023-01-02T06:14:22.240Z,63.52
2023-01-02T06:15:23.823Z,63.43
2023-01-02T06:16:26.572Z,63.27
2023-01-02T06:17:28.140Z,63.15
2023-01-02T06:18:33.258Z,63.36
2023-01-02T06:19:34.773Z,63.25
2023-01-02T06:20:37.243Z,63.53
2023-01-02T06:21:39.706Z,63.70
2023-01-02T06:22:41.207Z,63.27
2023-01-02T06:23:44.731Z,63.50
2023-01-02T06:24:46.304Z,63.34
2023-01-02T06:25:50.054Z,62.93
2023-01-02T06:26:51.630Z,62.98
2023-01-02T06:27:54.143Z,62.75
2023-01-02T06:28:57.280Z,62.49
2023-01-02T06:29:59.738Z,63.14
2023-01-02T06:31:02.167Z,63.10
2023-01-02T06:32:05.245Z,63.44
2023-01-02T06:33:06.782Z,62.72
2023-01-02T06:34:10.907Z,62.90
2023-01-02T06:35:12.498Z,62.66
2023-01-02T06:36:16.892Z,62.24
2023-01-02T06:37:18.470Z,62.23
2023-01-02T06:38:20.913Z,62.19
2023-01-02T06:39:22.622Z,62.19
2023-01-02T06:40:25.091Z,62.47
2023-01-02T06:41:28.071Z,62.45
2023-01-02T06:42:30.970Z,62.49
2023-01-02T06:43:35.362Z,62.99
2023-01-02T06:44:37.809Z,63.17
2023-01-02T06:45:39.380Z,64.32
2023-01-02T06:46:41.807Z,65.21
2023-01-02T06:47:43.566Z,65.04
2023-01-02T06:48:46.417Z,65.40
2023-01-02T06:49:48.204Z,65.46
2023-01-02T06:50:50.625Z,65.77
2023-01-02T06:51:52.163Z,65.29
2023-01-02T06:52:54.601Z,65.26
2023-01-02T06:53:56.989Z,65.25
2023-01-02T06:54:59.519Z,65.74
2023-01-02T06:56:01.336Z,64.58
2023-01-02T06:57:05.265Z,64.79
2023-01-02T06:58:12.237Z,65.40
2023-01-02T06:59:17.316Z,65.35
2023-01-02T07:00:19.178Z,64.99
2023-01-02T07:01:24.016Z,64.81
2023-01-02T07:02:25.695Z,65.66
2023-01-02T07:03:28.258Z,65.70
2023-01-02T07:04:30.764Z,64.82
2023-01-02T07:05:32.333Z,64.75
2023-01-02T07:06:35.541Z,64.59
2023-01-02T07:07:38.004Z,64.62
2023-01-02T07:08:40.211Z,63.90
2023-01-02T07:09:42.679Z,64.32
2023-01-02T07:10:49.349Z,64.09
2023-01-02T07:11:55.056Z,63.97
2023-01-02T07:12:58.212Z,63.52
2023-01-02T07:14:00.735Z,63.08
2023-01-02T07:15:02.497Z,63.56
2023-01-02T07:16:06.438Z,63.34
2023-01-02T07:17:10.339Z,63.12
2023-01-02T07:18:12.853Z,63.24
2023-01-02T07:19:14.360Z,63.64
2023-01-02T07:20:16.989Z,63.28
2023-01-02T07:21:18.627Z,63.24
2023-01-02T07:22:21.231Z,63.11
2023-01-02T07:23:22.799Z,62.66
2023-01-02T07:24:25.204Z,62.95
2023-01-02T07:25:26.749Z,62.76
2023-01-02T07:26:29.261Z,62.20
2023-01-02T07:27:31.703Z,62.64
2023-01-02T07:28:36.260Z,62.57
2023-01-02T07:29:37.744Z,62.47
2023-01-02T07:30:40.203Z,62.66
2023-01-02T07:31:41.680Z,62.62
2023-01-02T07:32:44.214Z,62.33
2023-01-02T07:33:47.091Z,62.98
2023-01-02T07:34:48.703Z,62.88
2023-01-02T07:35:51.304Z,63.17
2023-01-02T07:36:52.826Z,63.05
2023-01-02T07:37:55.245Z,62.57
2023-01-02T07:38:58.328Z,62.52
2023-01-02T07:39:59.810Z,63.08
2023-01-02T07:41:02.323Z,62.69
2023-01-02T07:42:05.023Z,62.51
2023-01-02T07:43:07.541Z,62.56
2023-01-02T07:44:10.344Z,63.05
2023-01-02T07:45:15.585Z,63.27
2023-01-02T07:46:18.685Z,62.73
2023-01-02T07:47:21.152Z,62.83
2023-01-02T07:48:22.687Z,62.80
2023-01-02T07:49:25.140Z,63.26
2023-01-02T07:50:26.715Z,62.58
2023-01-02T07:51:29.235Z,62.32
2023-01-02T07:52:30.735Z,62.14
2023-01-02T07:53:33.773Z,62.33
2023-01-02T07:54:36.239Z,62.86
2023-01-02T07:55:37.794Z,62.17
2023-01-02T07:56:40.276Z,62.46
2023-01-02T07:57:41.780Z,62.28
2023-01-02T07:58:44.259Z,62.87
2023-01-02T07:59:50.096Z,62.51
2023-01-02T08:00:55.644Z,62.39
2023-01-02T08:02:00.983Z,62.84
2023-01-02T08:03:02.597Z,62.54
2023-01-02T08:04:05.207Z,62.55
2023-01-02T08:05:07.652Z,61.99
2023-01-02T08:06:12.067Z,61.73
2023-01-02T08:07:13.638Z,62.36
2023-01-02T08:08:16.247Z,61.86
2023-01-02T08:09:17.735Z,62.80
2023-01-02T08:10:20.230Z,62.53
2023-01-02T08:11:23.329Z,62.09
2023-01-02T08:12:25.781Z,61.79
2023-01-02T08:13:28.324Z,62.38
2023-01-02T08:14:29.803Z,62.20
2023-01-02T08:15:34.225Z,62.46
2023-01-02T08:16:36.752Z,62.80
2023-01-02T08:17:38.483Z,63.23
2023-01-02T08:18:41.346Z,62.21
2023-01-02T08:19:43.745Z,61.83
2023-01-02T08:20:45.239Z,63.08
2023-01-02T08:21:47.663Z,62.17
2023-01-02T08:22:50.190Z,62.28
2023-01-02T08:23:52.669Z,61.54
2023-01-02T08:24:54.191Z,62.00
2023-01-02T08:25:58.929Z,62.58
2023-01-02T08:27:01.483Z,62.20
2023-01-02T08:28:04.434Z,62.25
2023-01-02T08:29:06.022Z,62.93
2023-01-02T08:30:09.291Z,62.62
2023-01-02T08:31:14.971Z,62.90
2023-01-02T08:32:17.443Z,62.86
2023-01-02T08:33:19.890Z,62.39
2023-01-02T08:34:22.454Z,62.08
2023-01-02T08:35:37.533Z,62.31
2023-01-02T08:36:40.652Z,62.24
2023-01-02T08:37:48.382Z,62.09
2023-01-02T08:38:52.876Z,62.08
2023-01-02T08:39:54.472Z,62.38
2023-01-02T08:40:59.046Z,62.47
2023-01-02T08:42:01.644Z,62.02
2023-01-02T08:43:04.299Z,62.48
2023-01-02T08:44:07.806Z,62.20
2023-01-02T08:45:10.514Z,62.17
2023-01-02T08:46:14.305Z,61.99
2023-01-02T08:47:15.930Z,62.04
2023-01-02T08:48:20.887Z,62.02
2023-01-02T08:49:24.015Z,61.87
2023-01-02T08:50:25.596Z,62.31
2023-01-02T08:51:28.443Z,62.55
2023-01-02T08:52:29.959Z,62.58
2023-01-02T08:53:32.491Z,62.58
2023-01-02T08:54:35.397Z,62.52
2023-01-02T08:55:37.891Z,62.44
2023-01-02T08:56:41.415Z,62.37
2023-01-02T08:57:42.987Z,62.52
2023-01-02T08:58:52.019Z,63.17
2023-01-02T08:59:55.059Z,62.45
2023-01-02T09:00:56.540Z,62.03
2023-01-02T09:02:00.428Z,61.98
2023-01-02T09:03:02.464Z,62.14
2023-01-02T09:04:12.064Z,62.43
2023-01-02T09:05:14.529Z,62.41
2023-01-02T09:06:21.699Z,61.89
2023-01-02T09:07:25.033Z,61.71
2023-01-02T09:08:27.443Z,61.18
2023-01-02T09:09:29.887Z,61.02
2023-01-02T09:10:32.311Z,61.00
2023-01-02T09:11:36.015Z,60.83
2023-01-02T09:12:38.532Z,60.96
2023-01-02T09:13:40.306Z,60.51
2023-01-02T09:14:42.706Z,60.94
2023-01-02T09:15:45.488Z,60.75
2023-01-02T09:16:48.605Z,60.76
2023-01-02T09:17:51.707Z,60.89
2023-01-02T09:18:56.708Z,61.89
2023-01-02T09:19:59.152Z,61.59
2023-01-02T09:21:00.680Z,61.57
2023-01-02T09:22:04.211Z,61.91
2023-01-02T09:23:05.765Z,61.82
2023-01-02T09:24:09.365Z,62.12
2023-01-02T09:25:10.868Z,61.75
2023-01-02T09:26:14.451Z,61.86
2023-01-02T09:27:16.980Z,61.75
2023-01-02T09:28:18.473Z,62.15
2023-01-02T09:29:21.452Z,61.49
2023-01-02T09:30:23.930Z,61.36
2023-01-02T09:31:26.786Z,61.66
2023-01-02T09:32:28.615Z,61.04
2023-01-02T09:33:32.775Z,61.12
2023-01-02T09:34:35.256Z,61.58
2023-01-02T09:35:36.750Z,61.86
2023-01-02T09:36:39.893Z,62.02
2023-01-02T09:37:41.364Z,61.96
2023-01-02T09:38:44.129Z,61.56
2023-01-02T09:39:45.662Z,61.33
2023-01-02T09:40:52.181Z,61.87
2023-01-02T09:41:57.743Z,61.08
2023-01-02T09:43:00.754Z,61.14
2023-01-02T09:44:08.333Z,60.98
2023-01-02T09:45:11.976Z,61.59
2023-01-02T09:46:24.965Z,61.46
2023-01-02T09:47:29.536Z,61.81
2023-01-02T09:48:35.127Z,61.04
2023-01-02T09:49:44.840Z,61.14
2023-01-02T09:50:49.227Z,61.35
2023-01-02T09:51:52.259Z,61.46
2023-01-02T09:52:58.255Z,61.05
2023-01-02T09:54:01.571Z,61.07
2023-01-02T09:55:05.658Z,60.98
2023-01-02T09:56:16.482Z,60.54
2023-01-02T09:57:33.189Z,60.82
2023-01-02T09:58:43.703Z,61.17
2023-01-02T09:59:51.513Z,60.99
2023-01-02T10:00:54.044Z,61.16
2023-01-02T10:02:03.163Z,60.80
2023-01-02T10:03:13.275Z,61.44
2023-01-02T10:04:25.773Z,61.27
2023-01-02T10:05:50.059Z,61.24
2023-01-02T10:07:01.324Z,61.07
2023-01-02T10:08:12.916Z,61.27
2023-01-02T10:09:22.148Z,61.23
2023-01-02T10:10:30.671Z,60.98
2023-01-02T10:11:44.285Z,61.28
2023-01-02T10:13:01.987Z,60.89
2023-01-02T10:14:21.124Z,60.85
2023-01-02T10:15:26.864Z,60.79
2023-01-02T10:16:33.077Z,60.69
2023-01-02T10:17:40.125Z,60.52
2023-01-02T10:18:46.218Z,60.64
2023-01-02T10:19:57.291Z,60.44
2023-01-02T10:21:06.379Z,61.16
2023-01-02T10:22:12.131Z,61.39
2023-01-02T10:23:21.019Z,60.94
2023-01-02T10:24:32.045Z,60.72
2023-01-02T10:25:40.454Z,61.60
2023-01-02T10:26:48.314Z,61.09
2023-01-02T10:27:55.585Z,60.98
2023-01-02T10:29:06.504Z,61.25
2023-01-02T10:30:19.525Z,60.79
2023-01-02T10:31:25.054Z,60.59
2023-01-02T10:32:28.231Z,60.74
2023-01-02T10:33:44.912Z,60.16
2023-01-02T10:35:10.203Z,59.87
2023-01-02T10:36:24.202Z,59.88
2023-01-02T10:37:28.255Z,59.56
2023-01-02T10:38:35.732Z,59.44
2023-01-02T10:39:38.260Z,58.74
2023-01-02T10:40:43.312Z,58.72
2023-01-02T10:41:50.154Z,58.24
2023-01-02T10:42:59.817Z,57.88
2023-01-02T10:44:06.303Z,58.21
2023-01-02T10:45:17.132Z,58.79
2023-01-02T10:46:19.502Z,58.54
2023-01-02T10:47:31.169Z,58.47
2023-01-02T10:48:36.069Z,57.78
2023-01-02T10:49:39.782Z,57.95
2023-01-02T10:50:48.891Z,58.16
2023-01-02T10:51:59.364Z,58.65
2023-01-02T10:53:07.828Z,58.71
2023-01-02T10:54:11.489Z,59.31
2023-01-02T10:55:14.152Z,60.03
2023-01-02T10:56:19.700Z,59.79
2023-01-02T10:57:25.920Z,60.16
2023-01-02T10:58:29.937Z,60.03
2023-01-02T10:59:34.166Z,59.97
2023-01-02T11:00:36.670Z,59.64
2023-01-02T11:01:51.193Z,58.99
2023-01-02T11:02:55.710Z,59.11
2023-01-02T11:04:13.155Z,58.94
2023-01-02T11:05:20.923Z,59.72
2023-01-02T11:06:30.121Z,59.93
2023-01-02T11:07:41.024Z,59.69
2023-01-02T11:08:43.563Z,59.79
2023-01-02T11:10:06.085Z,59.40
2023-01-02T11:11:14.448Z,59.56
2023-01-02T11:12:16.901Z,60.11
2023-01-02T11:13:21.503Z,60.26
2023-01-02T11:14:29.149Z,60.31
2023-01-02T11:15:34.843Z,60.20
2023-01-02T11:16:38.681Z,59.70
2023-01-02T11:17:46.168Z,59.78
2023-01-02T11:18:52.557Z,58.94
2023-01-02T11:19:56.966Z,58.90
2023-01-02T11:21:04.281Z,59.94
2023-01-02T11:22:09.092Z,59.53
2023-01-02T11:23:16.810Z,58.88
2023-01-02T11:24:25.812Z,59.52
2023-01-02T11:25:30.205Z,59.52
2023-01-02T11:26:36.036Z,59.38
2023-01-02T11:27:42.373Z,59.16
2023-01-02T11:28:45.051Z,59.67
2023-01-02T11:29:49.811Z,60.29
2023-01-02T11:30:54.584Z,60.12
2023-01-02T11:32:00.618Z,60.46
2023-01-02T11:33:09.629Z,60.28
2023-01-02T11:34:21.682Z,59.55
2023-01-02T11:35:37.580Z,59.72
2023-01-02T11:36:44.989Z,59.46
2023-01-02T11:37:53.002Z,58.03
2023-01-02T11:38:56.935Z,58.42
2023-01-02T11:40:00.901Z,57.97
2023-01-02T11:41:03.644Z,58.19
2023-01-02T11:42:49.276Z,58.48
2023-01-02T11:43:57.206Z,58.35
2023-01-02T11:45:06.433Z,57.40
2023-01-02T11:46:20.234Z,57.08
2023-01-02T11:47:35.379Z,56.88
2023-01-02T11:48:38.003Z,55.07
2023-01-02T11:49:45.741Z,55.79
2023-01-02T11:50:48.549Z,52.88
2023-01-02T11:51:56.591Z,50.88
2023-01-02T11:53:03.563Z,50.52
2023-01-02T11:54:15.440Z,49.94
2023-01-02T11:55:32.797Z,47.89
2023-01-02T11:56:37.548Z,47.31
2023-01-02T11:57:45.197Z,46.06
2023-01-02T11:58:54.309Z,46.11
2023-01-02T12:00:02.575Z,44.75
2023-01-02T12:01:12.542Z,46.28
2023-01-02T12:02:22.887Z,44.84
2023-01-02T12:03:27.816Z,45.22
2023-01-02T12:04:31.251Z,45.06
2023-01-02T12:05:43.651Z,46.05
2023-01-02T12:06:59.394Z,45.45
2023-01-02T12:08:12.394Z,45.25
2023-01-02T12:09:22.460Z,46.76
2023-01-02T12:10:41.248Z,48.72
2023-01-02T12:12:01.910Z,50.03
2023-01-02T12:13:20.510Z,50.23
2023-01-02T12:14:25.458Z,50.08
2023-01-02T12:15:54.936Z,50.63
2023-01-02T12:17:03.852Z,49.93
2023-01-02T12:18:20.121Z,49.95
2023-01-02T12:19:36.739Z,48.94
2023-01-02T12:20:44.154Z,51.77
2023-01-02T12:21:58.388Z,51.94
2023-01-02T12:23:19.461Z,51.43
2023-01-02T12:24:40.311Z,51.36
2023-01-02T12:25:54.258Z,52.06
2023-01-02T12:27:05.956Z,52.42
2023-01-02T12:28:24.842Z,52.94
2023-01-02T12:29:47.117Z,53.99
2023-01-02T12:30:58.446Z,55.44
2023-01-02T12:32:30.226Z,55.16
2023-01-02T12:33:45.657Z,54.88
2023-01-02T12:35:08.296Z,53.53
2023-01-02T12:36:25.955Z,53.55
2023-01-02T12:37:40.895Z,54.17
2023-01-02T12:39:02.533Z,54.09
2023-01-02T12:40:35.791Z,53.26
2023-01-02T12:42:01.765Z,52.18
2023-01-02T12:43:47.973Z,53.05
2023-01-02T12:44:53.279Z,52.28
2023-01-02T12:46:09.513Z,51.81
2023-01-02T12:47:25.719Z,50.60
2023-01-02T12:48:59.372Z,52.72
2023-01-02T12:50:26.137Z,53.46
2023-01-02T12:51:34.495Z,52.92
2023-01-02T12:52:51.506Z,52.58
2023-01-02T12:54:20.731Z,51.51
2023-01-02T12:55:35.897Z,51.65
2023-01-02T12:56:44.524Z,51.33
2023-01-02T12:57:54.628Z,52.76
2023-01-02T12:59:11.575Z,52.11
2023-01-02T13:00:29.353Z,53.02
2023-01-02T13:01:39.405Z,53.13
2023-01-02T13:02:57.517Z,53.47
2023-01-02T13:04:10.559Z,52.92
2023-01-02T13:05:17.173Z,52.84
2023-01-02T13:06:44.469Z,53.36
2023-01-02T13:07:51.937Z,54.27
2023-01-02T13:09:02.009Z,55.02
2023-01-02T13:10:06.601Z,54.28
2023-01-02T13:11:11.472Z,53.69
2023-01-02T13:12:16.224Z,54.10
2023-01-02T13:13:19.403Z,53.93
2023-01-02T13:14:25.333Z,54.55
2023-01-02T13:15:31.784Z,54.10
2023-01-02T13:16:36.725Z,53.95
2023-01-02T13:17:54.548Z,53.45
2023-01-02T13:19:06.279Z,54.02
2023-01-02T13:20:19.419Z,53.66
2023-01-02T13:21:29.366Z,54.23
2023-01-02T13:22:44.173Z,54.79
2023-01-02T13:23:48.429Z,54.13
2023-01-02T13:24:53.101Z,54.56
2023-01-02T13:25:59.981Z,54.34
2023-01-02T13:27:02.528Z,54.51
2023-01-02T13:28:07.896Z,54.11
2023-01-02T13:29:22.910Z,54.29
2023-01-02T13:30:44.025Z,54.22
2023-01-02T13:31:50.357Z,54.60
2023-01-02T13:32:54.177Z,55.57
2023-01-02T13:33:56.746Z,55.15
2023-01-02T13:35:03.467Z,55.51
2023-01-02T13:36:17.739Z,55.72
2023-01-02T13:37:23.558Z,55.94
2023-01-02T13:38:30.354Z,55.75
2023-01-02T13:39:47.087Z,56.20
2023-01-02T13:40:56.748Z,56.64
2023-01-02T13:42:19.293Z,57.01
2023-01-02T13:43:27.088Z,56.71
2023-01-02T13:44:36.456Z,56.45
2023-01-02T13:45:45.268Z,56.73
2023-01-02T13:47:03.973Z,56.70
2023-01-02T13:48:19.053Z,56.54
2023-01-02T13:49:22.547Z,57.28
2023-01-02T13:50:29.862Z,58.42
2023-01-02T13:51:35.719Z,58.13
2023-01-02T13:52:37.727Z,58.29
2023-01-02T13:53:42.795Z,58.02
2023-01-02T13:55:34.589Z,58.27
2023-01-02T13:57:18.986Z,58.24
2023-01-02T13:58:32.379Z,58.58
2023-01-02T13:59:41.684Z,58.88
2023-01-02T14:00:53.494Z,58.56
2023-01-02T14:02:16.860Z,58.11
2023-01-02T14:03:34.863Z,58.56
2023-01-02T14:04:41.228Z,58.36
2023-01-02T14:06:00.923Z,58.79
2023-01-02T14:07:40.218Z,59.40
2023-01-02T14:09:12.480Z,59.58
2023-01-02T14:10:27.240Z,60.03
2023-01-02T14:11:55.473Z,59.62
2023-01-02T14:13:01.345Z,59.81
2023-01-02T14:14:11.804Z,59.56
2023-01-02T14:15:17.748Z,59.78
2023-01-02T14:16:34.989Z,60.17